Time;durP1;ratioP1;P1;durP2;ratioP2;P2;SDS_P1;SDS_P2;PMS_P1;PMS_P2;Temp;Humidity;BMP_temperature;BMP_pressure;BME280_temperature;BME280_humidity;BME280_pressure;Samples;Min_cycle;Max_cycle;Signal;HPM_P1;HPM_P2
2022/11/13 00:00:53;;;;;;;8.73;7.90;;;6.90;99.90;;;;;;5016730;28;20435;-74
2022/11/13 00:03:19;;;;;;;9.13;8.30;;;6.90;99.90;;;;;;5016478;28;20988;-74
2022/11/13 00:05:44;;;;;;;9.97;9.07;;;7.00;99.90;;;;;;5016888;28;20185;-74
2022/11/13 00:08:10;;;;;;;10.07;9.17;;;6.90;99.90;;;;;;5017341;28;20198;-74
2022/11/13 00:10:36;;;;;;;10.60;8.77;;;6.80;99.90;;;;;;5016880;28;20164;-74
2022/11/13 00:13:02;;;;;;;9.10;8.20;;;6.90;99.90;;;;;;5016027;28;20458;-75
2022/11/13 00:15:27;;;;;;;11.20;8.67;;;6.80;99.90;;;;;;5016328;28;20207;-74
2022/11/13 00:17:53;;;;;;;9.50;8.70;;;6.80;99.90;;;;;;5016654;28;20288;-74
2022/11/13 00:20:19;;;;;;;8.57;7.67;;;6.80;99.90;;;;;;5016306;28;20164;-75
2022/11/13 00:22:45;;;;;;;8.60;7.70;;;6.80;99.90;;;;;;5016372;28;20668;-75
2022/11/13 00:25:10;;;;;;;9.33;8.43;;;6.80;99.90;;;;;;5016378;28;20172;-75
2022/11/13 00:27:36;;;;;;;9.00;8.20;;;6.80;99.90;;;;;;5015936;28;20431;-75
2022/11/13 00:30:03;;;;;;;9.23;8.27;;;6.80;99.90;;;;;;5016532;28;20315;-75
2022/11/13 00:32:28;;;;;;;9.10;7.90;;;6.80;99.90;;;;;;5016051;28;20200;-75
2022/11/13 00:34:54;;;;;;;11.17;10.17;;;6.80;99.90;;;;;;5016084;28;20423;-75
2022/11/13 00:37:19;;;;;;;10.17;9.17;;;6.70;99.90;;;;;;5015933;28;20204;-75
2022/11/13 00:39:45;;;;;;;10.93;9.83;;;6.80;99.90;;;;;;5015886;28;20201;-75
2022/11/13 00:42:11;;;;;;;9.53;8.63;;;6.70;99.90;;;;;;5015007;28;20204;-76
2022/11/13 00:44:36;;;;;;;9.23;8.30;;;6.70;99.90;;;;;;5015694;28;20445;-75
2022/11/13 00:47:02;;;;;;;8.23;7.30;;;6.70;99.90;;;;;;5016176;28;20180;-76
2022/11/13 00:49:27;;;;;;;9.67;8.73;;;6.70;99.90;;;;;;5015408;28;20263;-75
2022/11/13 00:51:53;;;;;;;8.20;7.40;;;6.70;99.90;;;;;;5015106;28;20214;-74
2022/11/13 00:54:19;;;;;;;8.87;8.00;;;6.70;99.90;;;;;;5015762;28;20206;-74
2022/11/13 00:56:44;;;;;;;10.37;8.90;;;6.80;99.90;;;;;;5016023;28;20185;-74
2022/11/13 00:59:10;;;;;;;9.63;8.77;;;6.70;99.90;;;;;;5014934;28;20269;-74
2022/11/13 01:01:35;;;;;;;8.87;8.00;;;6.60;99.90;;;;;;5015444;28;20203;-75
2022/11/13 01:04:01;;;;;;;9.83;9.03;;;6.50;99.90;;;;;;5014633;28;20182;-74
2022/11/13 01:06:27;;;;;;;10.47;9.40;;;6.50;99.90;;;;;;5015596;28;20247;-74
2022/11/13 01:08:58;;;;;;;11.17;10.17;;;6.40;99.90;;;;;;5015386;28;20523;-74
2022/11/13 01:11:26;;;;;;;9.37;8.47;;;6.40;99.90;;;;;;5015450;28;20289;-75
2022/11/13 01:13:53;;;;;;;8.23;7.50;;;6.40;99.90;;;;;;5013789;28;20442;-76
2022/11/13 01:16:21;;;;;;;8.47;7.67;;;6.40;99.90;;;;;;5015297;28;20421;-74
2022/11/13 01:18:47;;;;;;;8.00;7.20;;;6.40;99.90;;;;;;5015070;28;20459;-74
2022/11/13 01:21:16;;;;;;;8.00;7.30;;;6.40;99.90;;;;;;5015405;28;20406;-76
2022/11/13 01:23:42;;;;;;;9.73;7.80;;;6.50;99.90;;;;;;5015179;28;20203;-75
2022/11/13 01:26:23;;;;;;;9.10;8.23;;;6.50;99.90;;;;;;5014345;28;20508;-74
2022/11/13 01:28:49;;;;;;;9.10;8.20;;;6.50;99.90;;;;;;5015166;28;20512;-75
2022/11/13 01:31:18;;;;;;;8.53;7.53;;;6.50;99.90;;;;;;5015059;28;20407;-75
2022/11/13 01:33:46;;;;;;;8.47;7.67;;;6.50;99.90;;;;;;5015112;28;20165;-74
2022/11/13 01:36:20;;;;;;;9.17;7.97;;;6.40;99.90;;;;;;5014773;28;20498;-75
2022/11/13 01:38:47;;;;;;;8.30;7.60;;;6.40;99.90;;;;;;5015093;28;20427;-75
2022/11/13 01:41:25;;;;;;;8.43;7.63;;;6.40;99.90;;;;;;5014719;28;20434;-74
2022/11/13 01:43:52;;;;;;;8.17;7.40;;;6.40;99.90;;;;;;5016387;28;20406;-75
2022/11/13 01:46:24;;;;;;;7.93;7.23;;;6.50;99.90;;;;;;5014996;28;20406;-74
2022/11/13 01:49:02;;;;;;;9.03;8.13;;;6.40;99.90;;;;;;5014997;28;20434;-75
2022/11/13 01:51:48;;;;;;;8.87;8.07;;;6.40;99.90;;;;;;5014453;28;20879;-74
2022/11/13 01:54:21;;;;;;;7.57;6.87;;;6.40;99.90;;;;;;5014681;28;20772;-75
2022/11/13 01:56:47;;;;;;;8.33;7.47;;;6.30;99.90;;;;;;5014769;28;20416;-75
2022/11/13 01:59:20;;;;;;;7.60;6.90;;;6.30;99.90;;;;;;4998773;28;20460;-74
2022/11/13 02:01:46;;;;;;;7.47;6.87;;;6.30;99.90;;;;;;4994944;28;20439;-74
2022/11/13 02:04:11;;;;;;;8.90;8.10;;;6.30;99.90;;;;;;4994693;28;20408;-74
2022/11/13 02:06:46;;;;;;;8.80;7.90;;;6.30;99.90;;;;;;4993386;28;20269;-74
2022/11/13 02:09:12;;;;;;;8.30;7.50;;;6.20;99.90;;;;;;4995396;28;20149;-74
2022/11/13 02:11:38;;;;;;;7.90;7.23;;;6.20;99.90;;;;;;5010451;28;20509;-75
2022/11/13 02:14:04;;;;;;;9.23;8.33;;;6.20;99.90;;;;;;5014177;28;20900;-75
2022/11/13 02:16:33;;;;;;;7.70;6.77;;;6.20;99.90;;;;;;5013999;28;20172;-75
2022/11/13 02:19:00;;;;;;;8.50;7.70;;;6.20;99.90;;;;;;5013983;28;20411;-75
2022/11/13 02:21:32;;;;;;;9.83;7.73;;;6.20;99.90;;;;;;5014119;28;20414;-75
2022/11/13 02:24:12;;;;;;;9.07;8.17;;;6.20;99.90;;;;;;5014291;28;20371;-75
2022/11/13 02:26:38;;;;;;;7.90;7.20;;;6.20;99.90;;;;;;5013610;28;20379;-75
2022/11/13 02:29:04;;;;;;;8.67;7.87;;;6.20;99.90;;;;;;5014111;28;20465;-75
2022/11/13 02:31:29;;;;;;;7.30;6.70;;;6.10;99.90;;;;;;5013721;28;20417;-76
2022/11/13 02:33:55;;;;;;;8.10;7.30;;;6.10;99.90;;;;;;5014211;28;20160;-76
2022/11/13 02:36:23;;;;;;;8.10;7.40;;;6.10;99.90;;;;;;5013885;28;20168;-75
2022/11/13 02:38:51;;;;;;;8.27;7.57;;;6.10;99.90;;;;;;5013627;28;20621;-75
2022/11/13 02:41:16;;;;;;;7.97;7.27;;;6.10;99.90;;;;;;5012449;28;20415;-76
2022/11/13 02:43:42;;;;;;;8.97;8.07;;;6.10;99.90;;;;;;5012280;28;20492;-75
2022/11/13 02:46:08;;;;;;;9.43;8.53;;;6.10;99.90;;;;;;5013524;28;20272;-75
2022/11/13 02:48:33;;;;;;;10.33;9.33;;;6.10;99.90;;;;;;5017121;28;20247;-75
2022/11/13 02:50:59;;;;;;;8.97;8.17;;;6.10;99.90;;;;;;5013639;28;20168;-75
2022/11/13 02:53:24;;;;;;;9.17;8.27;;;6.10;99.90;;;;;;5014184;28;20172;-76
2022/11/13 02:55:50;;;;;;;12.20;10.40;;;6.00;99.90;;;;;;5012567;28;20200;-75
2022/11/13 02:58:15;;;;;;;7.83;7.13;;;6.00;99.90;;;;;;5013887;28;20189;-75
2022/11/13 03:00:41;;;;;;;9.83;8.83;;;6.00;99.90;;;;;;5012669;28;20168;-75
2022/11/13 03:03:07;;;;;;;8.00;7.23;;;6.00;99.90;;;;;;5013891;28;20187;-75
2022/11/13 03:05:32;;;;;;;9.53;8.60;;;6.00;99.90;;;;;;5012459;28;20195;-74
2022/11/13 03:07:58;;;;;;;7.40;6.70;;;5.90;99.90;;;;;;5013793;28;20545;-74
2022/11/13 03:10:23;;;;;;;7.10;6.40;;;5.90;99.90;;;;;;5013557;28;20183;-75
2022/11/13 03:12:49;;;;;;;8.60;7.80;;;5.90;99.90;;;;;;5013105;28;20241;-75
2022/11/13 03:15:14;;;;;;;10.23;7.50;;;5.80;99.90;;;;;;5012031;28;20168;-75
2022/11/13 03:17:40;;;;;;;9.33;8.43;;;5.80;99.90;;;;;;5011937;28;20191;-74
2022/11/13 03:20:06;;;;;;;9.23;8.43;;;5.90;99.90;;;;;;5013176;28;20176;-75
2022/11/13 03:22:32;;;;;;;7.83;7.03;;;5.90;99.90;;;;;;5013184;28;20179;-74
2022/11/13 03:24:57;;;;;;;7.90;7.23;;;5.90;99.90;;;;;;5011878;28;20412;-75
2022/11/13 03:27:23;;;;;;;10.90;9.53;;;6.00;99.90;;;;;;5014327;28;20164;-75
2022/11/13 03:29:48;;;;;;;10.93;9.73;;;6.00;99.90;;;;;;5017436;28;20168;-75
2022/11/13 03:32:14;;;;;;;16.97;13.20;;;6.10;99.90;;;;;;5016826;28;20269;-75
2022/11/13 03:34:39;;;;;;;29.00;17.40;;;6.20;99.90;;;;;;5016185;28;20164;-75
2022/11/13 03:37:05;;;;;;;21.77;15.73;;;6.10;99.90;;;;;;5015938;28;20282;-75
2022/11/13 03:39:30;;;;;;;18.63;15.80;;;6.20;99.90;;;;;;5016067;28;20196;-75
2022/11/13 03:41:56;;;;;;;16.53;14.83;;;6.20;99.90;;;;;;5019436;28;20212;-75
2022/11/13 03:44:21;;;;;;;30.20;16.93;;;6.30;99.90;;;;;;5016599;28;20168;-75
2022/11/13 03:46:47;;;;;;;23.37;17.90;;;6.20;99.90;;;;;;5016789;28;20160;-75
2022/11/13 03:49:12;;;;;;;16.70;15.00;;;6.10;99.90;;;;;;5017496;28;20171;-76
2022/11/13 03:51:38;;;;;;;20.77;14.97;;;6.10;99.90;;;;;;5016972;28;20207;-75
2022/11/13 03:54:04;;;;;;;37.07;17.53;;;6.20;99.90;;;;;;5017197;28;20165;-75
2022/11/13 03:56:29;;;;;;;16.97;14.70;;;5.80;99.90;;;;;;5017384;28;20178;-75
2022/11/13 03:58:55;;;;;;;27.43;16.27;;;5.90;99.90;;;;;;5015904;28;20192;-75
2022/11/13 04:01:20;;;;;;;16.27;14.40;;;5.90;99.90;;;;;;5016552;28;20192;-75
2022/11/13 04:03:46;;;;;;;18.23;16.43;;;5.90;99.90;;;;;;5017797;28;20168;-75
2022/11/13 04:06:13;;;;;;;33.70;17.50;;;6.10;99.90;;;;;;5015567;28;20172;-74
2022/11/13 04:08:38;;;;;;;67.87;19.70;;;6.10;99.90;;;;;;5016642;28;20183;-74
2022/11/13 04:11:08;;;;;;;22.23;14.20;;;6.00;99.90;;;;;;5016638;28;20490;-74
2022/11/13 04:13:34;;;;;;;53.23;17.50;;;5.90;99.90;;;;;;5016313;28;20168;-74
2022/11/13 04:16:00;;;;;;;17.33;15.53;;;5.90;99.90;;;;;;5016545;28;20407;-74
2022/11/13 04:18:25;;;;;;;15.90;13.37;;;6.00;99.90;;;;;;5016334;28;20195;-74
2022/11/13 04:20:51;;;;;;;44.07;19.70;;;6.10;99.90;;;;;;5017154;28;20564;-74
2022/11/13 04:23:16;;;;;;;19.07;16.50;;;6.10;99.90;;;;;;5016263;28;20201;-75
2022/11/13 04:25:43;;;;;;;33.20;19.47;;;6.00;99.90;;;;;;5016611;28;20166;-74
2022/11/13 04:28:09;;;;;;;18.23;16.30;;;6.10;99.90;;;;;;5015926;28;20184;-75
2022/11/13 04:30:35;;;;;;;17.53;15.63;;;6.20;99.90;;;;;;5016029;28;20395;-75
2022/11/13 04:33:00;;;;;;;39.83;15.47;;;6.20;99.90;;;;;;5016064;28;20438;-75
2022/11/13 04:35:26;;;;;;;18.63;15.03;;;6.10;99.90;;;;;;5016097;28;20168;-74
2022/11/13 04:37:52;;;;;;;107.50;23.43;;;6.00;99.90;;;;;;5015707;28;20702;-75
2022/11/13 04:40:17;;;;;;;28.93;17.13;;;5.80;99.90;;;;;;5014077;28;20177;-75
2022/11/13 04:42:49;;;;;;;56.43;16.97;;;5.80;99.90;;;;;;5015555;28;20415;-74
2022/11/13 04:45:17;;;;;;;77.23;17.73;;;5.70;99.90;;;;;;5015849;28;20225;-74
2022/11/13 04:47:43;;;;;;;23.47;14.47;;;5.40;99.90;;;;;;5015787;28;20458;-74
2022/11/13 04:50:08;;;;;;;14.97;13.33;;;5.40;99.90;;;;;;5015696;28;20395;-74
2022/11/13 04:52:34;;;;;;;32.53;15.67;;;5.40;99.90;;;;;;5015506;28;20517;-74
2022/11/13 04:55:00;;;;;;;49.87;15.27;;;5.30;99.90;;;;;;5015629;28;20255;-74
2022/11/13 04:57:25;;;;;;;30.13;14.20;;;5.20;99.90;;;;;;5015115;28;20189;-74
2022/11/13 04:59:51;;;;;;;59.87;15.07;;;5.10;99.90;;;;;;5014366;28;20661;-74
2022/11/13 05:02:16;;;;;;;51.03;16.10;;;5.10;99.90;;;;;;5015659;28;20555;-74
2022/11/13 05:04:42;;;;;;;48.40;15.87;;;5.10;99.90;;;;;;5015462;28;20196;-74
2022/11/13 05:07:07;;;;;;;24.47;15.20;;;5.10;99.90;;;;;;5015401;28;20179;-74
2022/11/13 05:09:33;;;;;;;24.60;14.13;;;5.10;99.90;;;;;;5015790;28;20183;-74
2022/11/13 05:11:58;;;;;;;45.13;14.17;;;5.10;99.90;;;;;;5015327;28;20200;-74
2022/11/13 05:14:24;;;;;;;44.50;15.43;;;5.30;99.90;;;;;;5015813;28;20200;-74
2022/11/13 05:16:50;;;;;;;27.37;14.33;;;5.20;99.90;;;;;;5015399;28;20172;-74
2022/11/13 05:19:16;;;;;;;29.30;13.97;;;5.20;99.90;;;;;;5015470;28;20181;-74
2022/11/13 05:21:42;;;;;;;38.77;16.20;;;5.30;99.90;;;;;;5015238;28;20556;-74
2022/11/13 05:24:10;;;;;;;22.33;15.40;;;5.20;99.90;;;;;;5015812;28;20407;-74
2022/11/13 05:26:37;;;;;;;26.87;15.07;;;5.30;99.90;;;;;;5014957;28;20558;-74
2022/11/13 05:29:03;;;;;;;47.27;16.47;;;5.30;99.90;;;;;;5015533;28;20773;-74
2022/11/13 05:31:28;;;;;;;48.43;16.83;;;5.40;99.90;;;;;;5015160;28;20493;-74
2022/11/13 05:33:54;;;;;;;34.40;15.80;;;5.40;99.90;;;;;;5013938;28;20544;-74
2022/11/13 05:36:21;;;;;;;34.43;17.50;;;5.50;99.90;;;;;;5015159;28;20192;-74
2022/11/13 05:38:46;;;;;;;28.97;16.17;;;5.40;99.90;;;;;;5014949;28;20188;-74
2022/11/13 05:41:15;;;;;;;42.87;16.47;;;5.50;99.90;;;;;;5014900;28;20951;-74
2022/11/13 05:43:41;;;;;;;22.97;15.30;;;5.60;99.90;;;;;;5013822;28;20183;-74
2022/11/13 05:46:09;;;;;;;24.30;14.40;;;5.50;99.90;;;;;;5015118;28;20399;-74
2022/11/13 05:48:34;;;;;;;16.70;13.77;;;5.50;99.90;;;;;;5015115;28;20418;-74
2022/11/13 05:51:24;;;;;;;24.83;14.77;;;5.60;99.90;;;;;;5016380;28;20407;-73
2022/11/13 05:53:51;;;;;;;29.30;16.20;;;5.50;99.90;;;;;;5014692;28;20169;-74
2022/11/13 05:56:22;;;;;;;20.17;15.13;;;5.60;99.90;;;;;;5014341;28;20490;-74
2022/11/13 05:58:49;;;;;;;28.80;15.40;;;5.60;99.90;;;;;;5002091;28;20482;-74
2022/11/13 06:01:19;;;;;;;26.93;15.40;;;5.50;99.90;;;;;;4995401;28;20411;-74
2022/11/13 06:03:45;;;;;;;22.17;17.00;;;5.50;99.90;;;;;;4995000;28;20440;-74
2022/11/13 06:06:13;;;;;;;31.27;17.10;;;5.60;99.90;;;;;;4994978;28;20484;-74
2022/11/13 06:08:39;;;;;;;21.50;16.00;;;5.50;99.90;;;;;;4994858;28;20412;-74
2022/11/13 06:11:11;;;;;;;18.47;14.23;;;5.60;99.90;;;;;;4995004;28;20923;-73
2022/11/13 06:13:37;;;;;;;19.07;15.90;;;5.60;99.90;;;;;;4993372;28;20412;-74
2022/11/13 06:16:13;;;;;;;26.43;18.13;;;5.60;99.90;;;;;;4997404;28;20980;-74
2022/11/13 06:18:40;;;;;;;17.33;15.40;;;5.70;99.90;;;;;;4995602;28;20513;-74
2022/11/13 06:21:11;;;;;;;18.20;16.27;;;5.70;99.90;;;;;;4994987;28;20412;-75
2022/11/13 06:23:39;;;;;;;16.97;15.10;;;5.80;99.90;;;;;;4995350;28;20385;-74
2022/11/13 06:26:08;;;;;;;18.93;15.67;;;5.80;99.90;;;;;;4994983;28;20773;-73
2022/11/13 06:28:34;;;;;;;19.80;17.47;;;5.80;99.90;;;;;;5003784;28;20486;-74
2022/11/13 06:31:05;;;;;;;40.23;21.00;;;5.70;99.90;;;;;;5014553;28;20419;-74
2022/11/13 06:33:31;;;;;;;22.83;17.30;;;5.60;99.90;;;;;;5014534;28;20805;-74
2022/11/13 06:35:56;;;;;;;25.03;18.30;;;5.60;99.90;;;;;;5014077;28;20462;-73
2022/11/13 06:38:22;;;;;;;16.47;14.87;;;5.70;99.90;;;;;;5013973;28;20458;-74
2022/11/13 06:40:48;;;;;;;17.03;13.90;;;5.80;99.90;;;;;;5013893;28;20165;-73
2022/11/13 06:43:13;;;;;;;18.47;16.63;;;5.70;99.90;;;;;;5012942;28;20255;-74
2022/11/13 06:45:39;;;;;;;14.47;12.97;;;5.90;99.90;;;;;;5012629;28;20512;-74
2022/11/13 06:48:04;;;;;;;14.50;12.77;;;6.00;99.90;;;;;;5012573;28;20176;-74
2022/11/13 06:50:30;;;;;;;17.77;15.97;;;6.00;99.90;;;;;;5014084;28;20220;-74
2022/11/13 06:52:56;;;;;;;12.13;10.93;;;6.10;99.90;;;;;;5013823;28;20883;-74
2022/11/13 06:55:21;;;;;;;13.97;12.60;;;5.90;99.90;;;;;;5014152;28;20182;-74
2022/11/13 06:57:47;;;;;;;11.83;10.73;;;5.80;99.90;;;;;;5013511;28;20222;-74
2022/11/13 07:00:13;;;;;;;14.37;12.80;;;5.70;99.90;;;;;;5013483;28;20201;-75
2022/11/13 07:02:38;;;;;;;12.50;11.30;;;5.70;99.90;;;;;;5012660;28;20192;-75
2022/11/13 07:05:04;;;;;;;12.00;10.90;;;5.90;99.90;;;;;;5013471;28;20848;-75
2022/11/13 07:07:30;;;;;;;11.87;10.67;;;5.50;99.90;;;;;;5013939;28;20199;-74
2022/11/13 07:09:55;;;;;;;11.73;10.53;;;5.30;99.90;;;;;;5013473;28;20602;-74
2022/11/13 07:12:21;;;;;;;11.13;10.13;;;5.30;99.90;;;;;;5013159;28;20565;-75
2022/11/13 07:14:46;;;;;;;12.50;11.30;;;5.40;99.90;;;;;;5011506;28;20176;-74
2022/11/13 07:17:12;;;;;;;12.13;10.67;;;5.50;99.90;;;;;;5013791;28;20548;-74
2022/11/13 07:19:37;;;;;;;11.77;10.77;;;5.30;99.90;;;;;;5013554;28;20226;-74
2022/11/13 07:22:03;;;;;;;13.47;12.20;;;5.60;99.90;;;;;;5012261;28;20200;-74
2022/11/13 07:24:28;;;;;;;14.80;13.27;;;5.60;99.90;;;;;;5013727;28;20160;-74
2022/11/13 07:26:54;;;;;;;14.47;12.20;;;5.60;99.90;;;;;;5013730;28;20194;-74
2022/11/13 07:29:20;;;;;;;16.07;14.13;;;5.70;99.90;;;;;;5012722;28;20591;-74
2022/11/13 07:31:45;;;;;;;12.47;11.20;;;5.70;99.90;;;;;;5013163;28;20196;-74
2022/11/13 07:34:11;;;;;;;12.23;11.03;;;5.60;99.90;;;;;;5014025;28;20200;-74
2022/11/13 07:36:36;;;;;;;18.00;12.97;;;5.30;99.90;;;;;;5013305;28;20654;-74
2022/11/13 07:39:02;;;;;;;18.03;13.23;;;5.20;99.90;;;;;;5013325;28;20196;-74
2022/11/13 07:41:27;;;;;;;17.17;10.03;;;5.30;99.90;;;;;;5013131;28;20194;-74
2022/11/13 07:43:53;;;;;;;14.10;10.83;;;5.10;99.90;;;;;;5012021;28;20191;-74
2022/11/13 07:46:18;;;;;;;13.30;11.90;;;4.90;99.90;;;;;;5013074;28;20164;-74
2022/11/13 07:48:44;;;;;;;13.47;11.70;;;4.80;99.90;;;;;;5015917;28;20229;-75
2022/11/13 07:51:10;;;;;;;13.73;12.27;;;4.70;99.90;;;;;;5013283;28;20535;-74
2022/11/13 07:53:37;;;;;;;13.03;11.77;;;5.10;99.90;;;;;;5013546;28;20468;-75
2022/11/13 07:56:03;;;;;;;14.60;13.07;;;5.40;99.90;;;;;;5013152;28;20165;-74
2022/11/13 07:58:29;;;;;;;16.17;13.03;;;5.40;99.90;;;;;;5013023;28;20820;-74
2022/11/13 08:01:00;;;;;;;14.40;13.00;;;5.40;99.90;;;;;;5013618;28;20407;-74
2022/11/13 08:03:26;;;;;;;14.03;12.60;;;5.30;99.90;;;;;;5013497;28;20760;-74
2022/11/13 08:05:53;;;;;;;18.07;16.07;;;5.40;99.90;;;;;;5013081;28;20407;-74
2022/11/13 08:08:18;;;;;;;19.83;15.60;;;5.70;99.90;;;;;;5013528;28;20173;-74
2022/11/13 08:10:44;;;;;;;12.50;11.30;;;5.70;99.90;;;;;;5013818;28;20800;-74
2022/11/13 08:13:10;;;;;;;11.90;10.70;;;5.60;99.90;;;;;;5011758;28;20200;-75
2022/11/13 08:15:35;;;;;;;14.27;12.77;;;5.80;99.90;;;;;;5016948;28;20180;-74
2022/11/13 08:18:03;;;;;;;16.10;14.40;;;5.90;99.90;;;;;;5016999;28;20456;-74
2022/11/13 08:20:30;;;;;;;13.93;12.63;;;6.10;99.90;;;;;;5016320;28;20168;-76
2022/11/13 08:23:00;;;;;;;16.17;12.33;;;6.10;99.90;;;;;;5016825;28;20465;-76
2022/11/13 08:25:26;;;;;;;14.93;11.63;;;5.80;99.90;;;;;;5016374;28;20852;-75
2022/11/13 08:27:53;;;;;;;12.47;11.30;;;5.40;99.90;;;;;;5016179;28;20423;-75
2022/11/13 08:30:20;;;;;;;12.20;11.00;;;5.40;99.90;;;;;;5017151;28;20418;-75
2022/11/13 08:32:47;;;;;;;13.40;12.10;;;5.60;99.90;;;;;;5016144;28;20457;-75
2022/11/13 08:35:12;;;;;;;12.07;10.93;;;5.70;99.90;;;;;;5016622;28;20420;-75
2022/11/13 08:37:38;;;;;;;12.73;11.57;;;5.60;99.90;;;;;;5015525;28;20443;-74
2022/11/13 08:40:04;;;;;;;12.77;11.57;;;5.30;99.90;;;;;;5016520;28;20538;-74
2022/11/13 08:42:30;;;;;;;11.53;10.33;;;5.50;99.90;;;;;;5015479;28;20186;-75
2022/11/13 08:44:55;;;;;;;14.00;12.60;;;5.40;99.90;;;;;;5015703;28;20482;-75
2022/11/13 08:47:21;;;;;;;11.97;10.83;;;5.50;99.90;;;;;;5016120;28;20679;-75
2022/11/13 08:49:46;;;;;;;13.17;11.87;;;5.90;99.90;;;;;;5015965;28;20522;-75
2022/11/13 08:52:12;;;;;;;13.43;12.20;;;6.10;99.90;;;;;;5031840;23;20219;-73
2022/11/13 08:54:37;;;;;;;12.67;11.37;;;6.20;99.90;;;;;;5022751;28;20256;-72
2022/11/13 08:57:03;;;;;;;12.90;11.60;;;6.30;99.90;;;;;;5028530;28;20180;-74
2022/11/13 08:59:29;;;;;;;11.80;10.70;;;6.30;99.90;;;;;;5035751;28;20238;-74
2022/11/13 09:01:58;;;;;;;11.50;10.40;;;5.80;99.90;;;;;;5035764;28;20179;-74
2022/11/13 09:04:24;;;;;;;10.57;9.57;;;5.60;99.90;;;;;;5034735;28;20194;-72
2022/11/13 09:06:51;;;;;;;11.77;10.77;;;5.90;99.90;;;;;;5035943;28;20911;-74
2022/11/13 09:09:17;;;;;;;11.03;10.03;;;6.10;99.90;;;;;;5035588;28;20455;-73
2022/11/13 09:11:43;;;;;;;16.00;13.40;;;5.70;99.90;;;;;;5035742;28;20466;-74
2022/11/13 09:14:09;;;;;;;13.47;12.17;;;5.70;99.90;;;;;;5035458;28;20441;-73
2022/11/13 09:16:34;;;;;;;12.47;11.27;;;6.00;99.90;;;;;;5035816;28;20160;-74
2022/11/13 09:19:00;;;;;;;11.90;10.80;;;6.10;99.90;;;;;;5035587;28;20239;-74
2022/11/13 09:21:26;;;;;;;13.50;12.20;;;6.20;99.90;;;;;;5026884;28;20174;-73
2022/11/13 09:23:51;;;;;;;12.40;11.30;;;6.20;99.90;;;;;;5015597;28;20160;-73
2022/11/13 09:26:17;;;;;;;11.90;10.73;;;6.40;99.90;;;;;;5015204;28;20594;-74
2022/11/13 09:28:42;;;;;;;14.00;12.60;;;6.60;99.90;;;;;;5015535;28;20191;-73
2022/11/13 09:31:08;;;;;;;11.93;10.93;;;6.80;99.90;;;;;;5015474;28;20169;-74
2022/11/13 09:33:34;;;;;;;12.90;11.80;;;6.90;99.90;;;;;;5015659;28;20192;-72
2022/11/13 09:36:00;;;;;;;11.30;10.40;;;6.80;99.90;;;;;;5015501;28;20641;-74
2022/11/13 09:38:25;;;;;;;11.00;10.00;;;6.70;99.90;;;;;;5015350;28;20199;-74
2022/11/13 09:41:16;;;;;;;10.23;9.33;;;6.40;99.90;;;;;;5014102;28;20176;-73
2022/11/13 09:43:46;;;;;;;11.80;10.53;;;6.30;99.90;;;;;;5000527;28;20655;-73
2022/11/13 09:46:29;;;;;;;11.63;10.43;;;6.40;99.90;;;;;;4995776;28;20451;-73
2022/11/13 09:49:01;;;;;;;13.30;11.97;;;6.50;99.90;;;;;;4995989;28;20443;-74
2022/11/13 09:51:30;;;;;;;10.77;9.77;;;6.60;99.90;;;;;;5012802;28;20412;-74
2022/11/13 09:53:57;;;;;;;12.87;11.63;;;6.70;99.90;;;;;;5014629;28;20447;-73
2022/11/13 09:56:32;;;;;;;13.60;12.20;;;6.80;99.90;;;;;;5013869;28;20531;-74
2022/11/13 09:59:22;;;;;;;11.97;10.90;;;6.70;99.90;;;;;;5014617;28;20443;-74
2022/11/13 10:02:12;;;;;;;12.03;10.90;;;7.00;99.90;;;;;;5009297;28;20444;-74
2022/11/13 10:05:27;;;;;;;13.70;12.47;;;6.90;99.90;;;;;;5013827;28;20410;-73
2022/11/13 10:08:01;;;;;;;13.67;12.37;;;7.00;99.90;;;;;;4984838;28;20476;-74
2022/11/13 10:10:33;;;;;;;12.77;11.67;;;7.00;99.90;;;;;;4995356;28;20397;-74
2022/11/13 10:12:59;;;;;;;14.40;13.00;;;7.20;99.90;;;;;;4995262;28;20495;-74
2022/11/13 10:15:25;;;;;;;14.00;12.70;;;7.20;99.90;;;;;;4995500;28;20489;-75
2022/11/13 10:18:09;;;;;;;12.73;11.50;;;7.40;99.90;;;;;;5014934;28;20444;-75
2022/11/13 10:20:47;;;;;;;13.47;12.27;;;7.50;99.90;;;;;;5014709;28;20404;-74
2022/11/13 10:23:21;;;;;;;14.87;13.37;;;7.50;99.90;;;;;;5013973;28;20445;-74
2022/11/13 10:25:50;;;;;;;12.73;11.63;;;7.40;99.90;;;;;;5013694;28;20393;-75
2022/11/13 10:28:24;;;;;;;12.73;11.63;;;7.50;99.90;;;;;;5014097;28;20504;-75
2022/11/13 10:30:50;;;;;;;15.13;13.63;;;7.50;99.90;;;;;;5014259;28;20400;-74
2022/11/13 10:33:21;;;;;;;14.20;12.90;;;7.70;99.90;;;;;;5014016;28;20516;-74
2022/11/13 10:36:12;;;;;;;12.90;11.80;;;7.70;99.90;;;;;;5014016;28;20590;-73
2022/11/13 10:38:52;;;;;;;12.07;10.77;;;7.80;99.90;;;;;;5014208;28;20522;-74
2022/11/13 10:41:20;;;;;;;11.80;10.70;;;7.70;99.90;;;;;;5014436;28;20392;-73
2022/11/13 10:43:56;;;;;;;11.80;10.70;;;7.60;99.90;;;;;;5012831;28;20442;-75
2022/11/13 10:46:24;;;;;;;12.27;11.07;;;8.30;99.90;;;;;;5012737;28;20442;-74
2022/11/13 10:48:50;;;;;;;11.40;10.40;;;10.10;99.90;;;;;;5013765;28;20430;-74
2022/11/13 10:51:26;;;;;;;10.57;9.70;;;12.10;99.90;;;;;;5012784;28;20429;-74
2022/11/13 10:53:52;;;;;;;11.27;10.33;;;12.80;99.90;;;;;;5013523;28;20506;-74
2022/11/13 10:56:30;;;;;;;11.33;10.33;;;13.80;99.90;;;;;;5012071;28;20510;-74
2022/11/13 10:59:10;;;;;;;11.17;10.27;;;14.70;99.90;;;;;;5012565;28;20452;-76
2022/11/13 11:01:36;;;;;;;11.20;10.30;;;16.70;99.90;;;;;;5013373;28;20425;-74
2022/11/13 11:04:03;;;;;;;10.50;9.60;;;17.40;97.60;;;;;;5013181;28;20492;-74
2022/11/13 11:06:38;;;;;;;10.90;10.03;;;18.00;96.10;;;;;;5012374;28;20175;-73
2022/11/13 11:09:07;;;;;;;11.40;10.40;;;15.90;96.90;;;;;;5013692;28;20405;-75
2022/11/13 11:14:32;;;;;;;10.57;9.73;;;15.60;98.90;;;;;;5014072;28;20499;-74
2022/11/13 11:17:00;;;;;;;11.00;10.10;;;15.70;98.30;;;;;;5012904;28;20426;-74
2022/11/13 11:19:29;;;;;;;10.33;9.33;;;17.00;97.50;;;;;;5013727;28;20756;-73
2022/11/13 11:22:07;;;;;;;9.03;8.27;;;19.30;94.30;;;;;;5011010;28;20485;-75
2022/11/13 11:24:38;;;;;;;9.73;8.93;;;20.10;91.90;;;;;;5013966;28;20480;-74
2022/11/13 11:27:13;;;;;;;9.53;8.83;;;20.80;90.30;;;;;;5013809;28;20383;-74
2022/11/13 11:30:01;;;;;;;9.43;8.73;;;18.50;91.60;;;;;;5013688;28;20474;-72
2022/11/13 11:32:40;;;;;;;10.20;9.27;;;19.90;91.30;;;;;;5013411;28;20423;-75
2022/11/13 11:35:18;;;;;;;9.60;8.90;;;20.60;88.70;;;;;;5013855;28;20387;-74
2022/11/13 11:38:00;;;;;;;8.87;8.17;;;21.60;86.90;;;;;;5013043;28;20430;-73
2022/11/13 11:40:40;;;;;;;9.90;9.10;;;21.80;82.50;;;;;;5013612;28;20398;-73
2022/11/13 11:43:32;;;;;;;9.07;8.30;;;21.90;80.90;;;;;;5012192;28;20438;-74
2022/11/13 11:45:58;;;;;;;10.43;9.53;;;21.40;82.40;;;;;;5014199;28;20383;-75
2022/11/13 11:48:29;;;;;;;10.90;9.90;;;21.10;82.20;;;;;;5014547;28;21127;-76
2022/11/13 11:51:20;;;;;;;10.53;9.63;;;21.90;82.40;;;;;;5022199;28;20536;-74
2022/11/13 11:54:13;;;;;;;9.60;8.80;;;22.90;78.10;;;;;;5017190;28;20785;-73
2022/11/13 11:56:44;;;;;;;9.30;8.60;;;21.00;78.60;;;;;;5015182;28;20785;-75
2022/11/13 11:59:39;;;;;;;9.30;8.60;;;18.40;86.80;;;;;;5016814;28;20871;-76
2022/11/13 12:02:37;;;;;;;10.70;9.80;;;20.00;83.70;;;;;;5016315;28;20449;-74
2022/11/13 12:05:24;;;;;;;11.80;10.70;;;18.00;88.70;;;;;;5016691;28;20383;-74
2022/11/13 12:08:21;;;;;;;9.77;9.00;;;19.80;87.10;;;;;;5016383;28;20422;-75
2022/11/13 12:10:50;;;;;;;9.47;8.60;;;20.60;82.00;;;;;;5016202;28;20726;-75
2022/11/13 12:13:15;;;;;;;8.90;8.13;;;20.40;84.00;;;;;;5016417;28;20445;-74
2022/11/13 12:16:03;;;;;;;10.40;9.60;;;21.00;81.60;;;;;;5017388;28;20407;-74
2022/11/13 12:18:39;;;;;;;10.00;9.17;;;21.40;80.90;;;;;;5015666;28;20234;-74
2022/11/13 12:21:15;;;;;;;10.47;9.60;;;21.50;80.10;;;;;;5016669;28;20417;-74
2022/11/13 12:24:13;;;;;;;9.67;8.87;;;21.80;78.90;;;;;;5015867;28;20500;-73
2022/11/13 12:26:59;;;;;;;9.03;8.33;;;23.80;75.40;;;;;;5017513;28;20469;-74
2022/11/13 12:29:43;;;;;;;9.40;8.60;;;24.10;74.00;;;;;;5015924;28;20410;-74
2022/11/13 12:32:17;;;;;;;7.90;7.30;;;25.40;70.50;;;;;;4997073;28;20419;-74
2022/11/13 12:34:57;;;;;;;9.90;9.20;;;25.80;66.50;;;;;;4997348;28;20384;-74
2022/11/13 12:37:42;;;;;;;9.97;9.17;;;24.40;67.60;;;;;;5003195;28;20457;-76
2022/11/13 12:40:40;;;;;;;9.50;8.70;;;24.00;66.60;;;;;;5017275;28;20387;-74
2022/11/13 12:43:15;;;;;;;9.53;8.73;;;21.80;72.10;;;;;;5013120;28;20443;-74
2022/11/13 12:45:57;;;;;;;16.90;15.00;;;18.60;80.00;;;;;;5016019;28;20403;-72
2022/11/13 12:48:32;;;;;;;9.53;8.73;;;17.40;86.20;;;;;;5015285;28;20445;-73
2022/11/13 12:51:01;;;;;;;10.70;9.60;;;14.80;91.90;;;;;;5016197;28;20398;-73
2022/11/13 12:53:30;;;;;;;11.17;9.93;;;13.80;95.70;;;;;;5016026;28;20951;-74
2022/11/13 12:56:01;;;;;;;10.10;9.17;;;14.00;97.30;;;;;;5015151;28;20840;-74